Time;durP1;ratioP1;P1;durP2;ratioP2;P2;SDS_P1;SDS_P2;PMS_P1;PMS_P2;Temp;Humidity;BMP_temperature;BMP_pressure;BME280_temperature;BME280_humidity;BME280_pressure;Samples;Min_cycle;Max_cycle;Signal;HPM_P1;HPM_P2
2023/07/23 00:02:57;;;;;;;6.82;4.53;;;;;;;17.06;70.75;100190.53;4879876;29;20550;-80
2023/07/23 00:06:10;;;;;;;6.43;4.63;;;;;;;17.04;71.17;100187.16;4868532;29;20097;-79
2023/07/23 00:09:16;;;;;;;6.85;4.68;;;;;;;17.02;71.74;100186.47;4879990;29;20099;-80
2023/07/23 00:13:03;;;;;;;8.10;4.97;;;;;;;16.95;72.14;100189.63;4880723;29;20079;-78
2023/07/23 00:16:37;;;;;;;7.80;4.40;;;;;;;16.91;72.28;100185.59;4821020;29;20124;-78
2023/07/23 00:20:17;;;;;;;6.13;4.75;;;;;;;16.92;72.36;100192.53;4880654;29;20101;-78
2023/07/23 00:23:52;;;;;;;7.50;4.45;;;;;;;16.90;72.49;100189.16;4879060;29;20076;-78
2023/07/23 00:27:46;;;;;;;6.53;4.78;;;;;;;16.82;73.15;100183.72;4870568;29;20522;-78
2023/07/23 00:31:04;;;;;;;8.50;4.35;;;;;;;16.76;73.29;100173.66;4864709;29;20051;-78
2023/07/23 00:34:37;;;;;;;6.18;4.43;;;;;;;16.68;73.43;100173.41;4868042;29;20049;-78
2023/07/23 00:38:45;;;;;;;7.97;5.13;;;;;;;16.56;73.75;100172.66;4868813;29;20404;-78
2023/07/23 00:47:17;;;;;;;;;;;;;;;;;;;;;
2023/07/23 00:50:23;;;;;;;5.57;4.03;;;;;;;16.41;72.87;100163.38;4880058;29;20055;-80
2023/07/23 00:54:10;;;;;;;7.55;4.70;;;;;;;16.32;73.31;100156.19;4876261;29;20043;-80
2023/07/23 00:58:49;;;;;;;6.32;4.50;;;;;;;16.12;73.29;100158.66;4871059;29;20112;-80
2023/07/23 01:06:49;;;;;;;8.55;5.38;;;;;;;16.00;73.71;100149.09;4843255;29;20053;-79
2023/07/23 01:10:33;;;;;;;9.10;4.82;;;;;;;15.85;74.35;100145.06;4849454;29;20087;-79
2023/07/23 01:14:30;;;;;;;;;;;;;;;;;;;;;
2023/07/23 01:18:34;;;;;;;6.70;4.38;;;;;;;15.64;74.77;100145.81;4852117;29;20150;-78
2023/07/23 01:22:18;;;;;;;7.23;4.57;;;;;;;15.54;74.77;100139.59;4860797;29;20055;-79
2023/07/23 01:25:39;;;;;;;8.63;5.00;;;;;;;15.59;74.65;100140.88;4825120;29;20676;-78
2023/07/23 01:29:09;;;;;;;7.55;4.45;;;;;;;15.65;74.10;100128.19;4849493;29;20622;-80
2023/07/23 01:33:04;;;;;;;;;;;;;;;;;;;;;
2023/07/23 01:37:00;;;;;;;6.88;4.95;;;;;;;15.62;74.50;100128.44;4841262;29;20105;-80
2023/07/23 01:42:02;;;;;;;;;;;;;;;;;;;;;
2023/07/23 01:46:12;;;;;;;6.07;4.43;;;;;;;15.44;74.90;100122.81;4859449;29;20060;-79
2023/07/23 01:49:28;;;;;;;5.07;3.75;;;;;;;15.11;75.64;100125.31;4859787;29;20052;-79
2023/07/23 01:58:00;;;;;;;6.43;4.53;;;;;;;15.02;76.00;100110.25;4860101;29;20057;-79
2023/07/23 02:02:12;;;;;;;8.43;4.55;;;;;;;14.94;76.08;100102.09;4763526;29;20601;-79
2023/07/23 02:05:19;;;;;;;7.55;4.15;;;;;;;14.87;76.35;100112.28;4860239;29;20057;-79
2023/07/23 02:09:10;;;;;;;9.73;5.20;;;;;;;14.85;76.98;100108.09;4860073;29;20056;-79
2023/07/23 02:13:14;;;;;;;;;;;;;;;;;;;;;
2023/07/23 02:17:16;;;;;;;9.52;4.32;;;;;;;14.61;77.14;100105.50;4859144;29;20412;-79
2023/07/23 02:21:31;;;;;;;9.05;4.43;;;;;;;14.58;77.78;100100.47;4844451;29;20049;-79
2023/07/23 02:24:46;;;;;;;8.88;4.75;;;;;;;14.59;77.71;100107.44;4848423;29;20066;-80
2023/07/23 02:27:54;;;;;;;9.88;5.00;;;;;;;14.54;77.93;100102.50;4848459;29;20047;-81
2023/07/23 02:31:49;;;;;;;7.60;4.53;;;;;;;14.39;78.44;100112.38;4848267;29;20182;-81
2023/07/23 02:35:17;;;;;;;11.48;5.18;;;;;;;14.32;78.82;100107.66;4857740;29;20106;-81
2023/07/23 02:39:15;;;;;;;8.75;4.68;;;;;;;14.27;79.10;100104.56;4848515;29;20125;-81
2023/07/23 02:42:34;;;;;;;6.00;4.38;;;;;;;14.21;79.10;100099.75;4851998;29;20141;-79
2023/07/23 02:46:38;;;;;;;6.93;4.70;;;;;;;14.11;79.79;100113.56;4862778;29;20077;-79
2023/07/23 02:50:14;;;;;;;;;;;;;;;;;;;;;
2023/07/23 02:53:36;;;;;;;6.05;4.72;;;;;;;14.12;79.84;100111.78;4859772;29;20083;-80
2023/07/23 02:58:07;;;;;;;;;;;;;;;;;;;;;
2023/07/23 03:05:21;;;;;;;6.90;4.68;;;;;;;13.91;80.93;100095.78;4870457;29;20460;-80
2023/07/23 03:09:21;;;;;;;6.28;4.63;;;;;;;13.89;81.23;100097.69;4871722;29;20052;-80
2023/07/23 03:12:52;;;;;;;11.43;5.22;;;;;;;13.90;81.02;100102.00;4880617;29;20048;-79
2023/07/23 03:16:46;;;;;;;6.93;4.93;;;;;;;13.77;81.49;100096.78;4881166;29;20104;-79
2023/07/23 03:20:40;;;;;;;;;;;;;;;;;;;;;
2023/07/23 03:24:35;;;;;;;8.90;5.22;;;;;;;13.82;81.68;100093.84;4871004;29;20538;-79
2023/07/23 03:28:08;;;;;;;10.20;5.07;;;;;;;13.75;81.79;100095.22;4872586;29;20517;-79
2023/07/23 03:31:24;;;;;;;7.05;4.90;;;;;;;13.82;81.52;100093.84;4870488;29;20069;-78
2023/07/23 03:35:12;;;;;;;8.88;4.60;;;;;;;14.02;80.87;100093.22;4880093;29;20052;-77
2023/07/23 03:38:55;;;;;;;;;;;;;;;;;;;;;
2023/07/23 03:52:15;;;;;;;7.47;5.05;;;;;;;13.33;84.10;100092.09;4817181;29;20057;-75
2023/07/23 03:56:48;;;;;;;5.40;4.55;;;;;;;13.24;84.79;100090.91;4834520;29;20087;-75
2023/07/23 04:01:20;;;;;;;10.30;4.70;;;;;;;13.25;84.94;100088.22;4855413;29;20129;-75
2023/07/23 04:04:44;;;;;;;7.07;5.25;;;;;;;13.29;85.57;100093.25;4879701;29;20116;-75
2023/07/23 04:07:57;;;;;;;9.27;4.95;;;;;;;13.15;86.24;100092.41;4879699;29;20510;-75
2023/07/23 04:11:56;;;;;;;;;;;;;;;;;;;;;
2023/07/23 04:15:52;;;;;;;5.95;4.50;;;;;;;13.20;86.31;100090.28;4863615;29;20048;-75
2023/07/23 04:19:21;;;;;;;8.77;5.05;;;;;;;13.28;86.36;100094.22;4879510;29;20056;-75
2023/07/23 04:23:17;;;;;;;;;;;;;;;;;;;;;
2023/07/23 04:27:09;;;;;;;8.50;4.88;;;;;;;13.46;85.91;100096.38;4850292;29;20057;-75
2023/07/23 04:31:16;;;;;;;6.40;5.38;;;;;;;13.53;85.57;100094.16;4861661;29;20040;-76
2023/07/23 04:35:18;;;;;;;6.80;4.80;;;;;;;13.51;86.13;100087.31;4804604;29;20147;-75
2023/07/23 04:38:49;;;;;;;11.20;5.35;;;;;;;13.54;85.98;100082.69;4821609;29;20094;-76
2023/07/23 04:47:05;;;;;;;6.43;5.05;;;;;;;13.56;84.93;100086.06;4861522;29;20105;-75
2023/07/23 04:51:14;;;;;;;6.35;4.53;;;;;;;13.56;85.50;100075.56;4860813;29;20052;-75
2023/07/23 04:55:21;;;;;;;9.57;5.07;;;;;;;13.64;85.43;100083.69;4860107;29;20412;-75
2023/07/23 04:59:21;;;;;;;8.25;4.63;;;;;;;13.64;85.67;100077.63;4861372;29;20052;-76
2023/07/23 05:11:21;;;;;;;7.40;4.55;;;;;;;14.28;82.59;100078.13;4828514;29;20048;-75
2023/07/23 05:15:35;;;;;;;7.00;4.70;;;;;;;14.51;81.35;100076.44;4802942;29;20132;-75
2023/07/23 05:19:10;;;;;;;5.90;4.25;;;;;;;14.53;81.03;100071.06;4765917;29;20096;-75
2023/07/23 05:28:09;;;;;;;8.73;4.88;;;;;;;14.93;78.97;100070.63;4859955;29;20497;-76
2023/07/23 05:36:19;;;;;;;6.13;4.30;;;;;;;15.24;77.17;100061.16;4859418;29;20519;-74
2023/07/23 05:44:11;;;;;;;7.70;4.22;;;;;;;15.47;76.22;100051.44;4859392;29;20064;-73
2023/07/23 05:47:42;;;;;;;6.03;4.57;;;;;;;15.56;75.89;100051.53;4859030;29;20143;-73
2023/07/23 05:51:57;;;;;;;6.00;4.28;;;;;;;15.68;76.17;100041.00;4857945;29;20052;-72
2023/07/23 05:55:22;;;;;;;7.28;4.03;;;;;;;15.75;76.21;100042.16;4858973;29;20064;-72
2023/07/23 05:58:55;;;;;;;10.20;4.80;;;;;;;15.75;76.31;100034.25;4859031;29;20109;-72
2023/07/23 06:02:06;;;;;;;6.97;4.47;;;;;;;15.92;76.15;100039.00;4858830;29;20115;-72
2023/07/23 06:05:58;;;;;;;;;;;;;;;;;;;;;
2023/07/23 06:09:14;;;;;;;5.55;4.18;;;;;;;16.27;75.24;100037.84;4858825;29;20511;-72
2023/07/23 06:12:21;;;;;;;6.53;4.28;;;;;;;16.14;76.03;100032.75;4859026;29;20133;-72
2023/07/23 06:15:28;;;;;;;9.93;4.30;;;;;;;16.39;74.91;100039.47;4858939;29;20057;-72
2023/07/23 06:18:35;;;;;;;5.80;4.57;;;;;;;16.46;74.83;100035.34;4858969;29;20113;-71
2023/07/23 06:21:45;;;;;;;8.90;4.93;;;;;;;16.61;74.23;100048.19;4847524;29;20094;-72
2023/07/23 06:24:48;;;;;;;7.05;4.13;;;;;;;16.74;74.66;100043.53;4859014;29;20637;-70
2023/07/23 06:27:52;;;;;;;5.85;4.20;;;;;;;16.93;74.30;100041.03;4858875;29;20045;-71
2023/07/23 06:36:50;;;;;;;5.10;3.33;;;;;;;17.34;71.09;100035.75;4868922;29;20059;-81
2023/07/23 06:45:50;;;;;;;5.80;2.85;;;;;;;18.31;59.76;100022.56;4848455;29;20109;-77
2023/07/23 06:54:36;;;;;;;6.05;2.78;;;;;;;18.77;57.14;100028.91;4796459;29;20474;-78
2023/07/23 06:59:14;;;;;;;5.85;2.80;;;;;;;18.90;56.24;100036.53;4850837;29;20384;-77
2023/07/23 07:03:05;;;;;;;6.43;2.35;;;;;;;18.99;55.66;100040.94;4864588;29;20098;-77
2023/07/23 07:11:54;;;;;;;4.00;2.40;;;;;;;19.04;55.16;100034.19;4848053;29;20049;-82
2023/07/23 07:16:16;;;;;;;4.53;2.13;;;;;;;19.09;54.91;100036.44;4848432;29;20113;-78
2023/07/23 07:20:14;;;;;;;6.43;2.50;;;;;;;19.10;54.97;100032.78;4851102;29;20502;-79
2023/07/23 07:24:03;;;;;;;9.32;2.60;;;;;;;19.15;55.20;100025.25;4862235;29;20072;-77
2023/07/23 07:32:56;;;;;;;5.78;2.17;;;;;;;19.23;54.29;100025.31;4880813;29;20696;-83
2023/07/23 07:36:38;;;;;;;8.15;2.67;;;;;;;19.32;54.47;100028.06;4868196;29;20052;-81
2023/07/23 07:45:36;;;;;;;4.32;2.33;;;;;;;19.37;54.05;100039.06;4823383;29;20009;-81
2023/07/23 07:49:23;;;;;;;;;;;;;;;;;;;;;
2023/07/23 07:53:06;;;;;;;6.72;3.13;;;;;;;19.45;53.86;100025.91;4842247;29;20380;-82
2023/07/23 08:20:38;;;;;;;4.55;2.53;;;;;;;19.43;54.48;100022.56;4837839;29;20106;-77
2023/07/23 08:25:19;;;;;;;3.45;2.10;;;;;;;19.58;54.07;100014.94;4823383;29;20208;-76
2023/07/23 08:32:45;;;;;;;4.97;2.55;;;;;;;19.64;54.48;100036.41;4855782;29;20420;-75
2023/07/23 08:37:13;;;;;;;7.28;2.45;;;;;;;19.78;54.03;100032.38;4867099;29;20049;-76
2023/07/23 08:40:42;;;;;;;5.53;2.47;;;;;;;19.64;54.37;100031.09;4870278;29;20105;-83
2023/07/23 08:43:53;;;;;;;5.88;2.28;;;;;;;19.85;54.16;100043.25;4867200;29;20068;-77
2023/07/23 08:47:46;;;;;;;7.75;2.30;;;;;;;19.74;53.97;100025.72;4853887;29;20093;-75
2023/07/23 08:50:50;;;;;;;6.03;2.20;;;;;;;19.85;54.04;100028.16;4867085;29;20063;-71
2023/07/23 08:57:39;;;;;;;5.50;2.70;;;;;;;20.03;53.67;100009.56;4810902;27;20049;-84
2023/07/23 09:01:07;;;;;;;4.10;2.20;;;;;;;20.10;53.44;100025.69;4878239;29;20052;-77
2023/07/23 09:04:22;;;;;;;12.63;2.17;;;;;;;20.21;52.66;100018.34;4878553;29;20079;-83
2023/07/23 09:07:49;;;;;;;5.45;2.50;;;;;;;20.37;52.62;100028.22;4878204;29;20048;-75
2023/07/23 09:11:10;;;;;;;3.88;2.17;;;;;;;20.49;52.17;100010.22;4888390;29;20050;-72
2023/07/23 09:14:21;;;;;;;5.53;2.20;;;;;;;20.62;51.98;100005.34;4887405;29;20079;-71
2023/07/23 09:17:27;;;;;;;5.80;1.95;;;;;;;20.69;51.31;99994.09;4859997;29;20076;-69
2023/07/23 09:20:31;;;;;;;3.65;2.00;;;;;;;20.90;51.68;100002.50;4859852;29;20396;-68
2023/07/23 09:24:07;;;;;;;6.22;2.15;;;;;;;20.99;50.80;100006.84;4859293;29;20080;-77
2023/07/23 09:27:59;;;;;;;3.50;1.70;;;;;;;20.94;50.01;100009.16;4854918;29;20044;-89
2023/07/23 09:32:10;;;;;;;5.90;2.40;;;;;;;20.99;49.77;100006.00;4888163;29;20132;-80
2023/07/23 09:35:44;;;;;;;3.05;1.98;;;;;;;21.02;50.31;100022.47;4896977;29;20051;-79
2023/07/23 09:40:10;;;;;;;2.55;1.48;;;;;;;20.96;49.33;100020.44;4897061;29;20124;-80
2023/07/23 09:43:45;;;;;;;3.60;1.73;;;;;;;20.98;48.70;100037.06;4792121;29;20050;-77
2023/07/23 09:52:33;;;;;;;3.33;1.25;;;;;;;20.48;51.71;100056.34;4857653;29;20129;-78
2023/07/23 09:55:42;;;;;;;3.45;1.40;;;;;;;20.39;54.37;100062.63;4863137;29;20068;-78
2023/07/23 09:59:01;;;;;;;5.15;1.60;;;;;;;20.51;56.32;100055.22;4878186;29;20116;-81
2023/07/23 10:02:07;;;;;;;5.18;1.83;;;;;;;20.29;57.03;100053.88;4878464;29;20064;-85
2023/07/23 10:05:23;;;;;;;4.30;2.30;;;;;;;20.39;60.47;100046.69;4878032;29;20047;-88
2023/07/23 10:08:34;;;;;;;6.07;2.90;;;;;;;19.99;62.19;100053.31;4877778;29;20056;-75
2023/07/23 10:11:38;;;;;;;5.78;2.00;;;;;;;19.96;66.80;100046.50;4877652;29;20120;-76
2023/07/23 10:14:41;;;;;;;2.90;1.73;;;;;;;20.04;69.58;100045.75;4877865;29;20481;-79
2023/07/23 10:17:51;;;;;;;6.47;2.00;;;;;;;19.93;70.19;100051.28;4877581;29;20052;-81
2023/07/23 10:20:57;;;;;;;3.65;1.80;;;;;;;19.96;71.28;100046.50;4877556;29;20112;-85
2023/07/23 10:24:03;;;;;;;5.43;2.13;;;;;;;19.96;74.79;100041.19;4877558;29;20080;-81
2023/07/23 10:27:17;;;;;;;3.13;1.73;;;;;;;19.88;74.21;100043.78;4877500;29;20048;-79
2023/07/23 10:30:22;;;;;;;;;;;;;;;19.71;74.25;100045.41;4878134;29;20563;-87
2023/07/23 10:33:25;;;;;;;3.72;1.77;;;;;;;19.51;74.05;100046.50;4877827;29;19971;-85
2023/07/23 10:36:28;;;;;;;6.63;1.90;;;;;;;19.77;74.11;100038.69;4866213;29;20416;-78
2023/07/23 10:39:43;;;;;;;2.78;1.55;;;;;;;19.89;74.29;100039.31;4877611;29;20098;-78
2023/07/23 10:42:47;;;;;;;4.05;1.80;;;;;;;19.95;72.47;100022.78;4877703;29;20052;-75
2023/07/23 10:46:04;;;;;;;5.60;1.70;;;;;;;20.01;72.19;100016.84;4877610;29;20108;-74
2023/07/23 10:49:18;;;;;;;4.57;1.63;;;;;;;19.97;71.65;100018.13;4877659;29;20051;-77
2023/07/23 10:52:22;;;;;;;;;;;;;;;19.89;72.68;100018.91;4878144;29;20048;-77
2023/07/23 10:55:52;;;;;;;3.15;1.70;;;;;;;19.52;73.29;100013.69;4880304;29;19966;-75
2023/07/23 10:59:15;;;;;;;3.55;1.52;;;;;;;19.62;72.29;100021.59;4881069;29;20044;-75
2023/07/23 11:02:25;;;;;;;4.65;1.42;;;;;;;19.50;72.85;100013.88;4881174;29;20055;-76
2023/07/23 11:05:39;;;;;;;2.78;1.65;;;;;;;19.45;74.39;100020.59;4881002;29;20507;-77
2023/07/23 11:08:48;;;;;;;4.50;2.15;;;;;;;19.34;74.17;100016.34;4881139;29;20056;-74
2023/07/23 11:11:51;;;;;;;3.63;2.20;;;;;;;19.27;74.79;100010.81;4880909;29;20375;-76
2023/07/23 11:14:55;;;;;;;7.13;3.10;;;;;;;19.48;74.21;100015.00;4880550;29;20415;-76
2023/07/23 11:17:58;;;;;;;11.45;7.97;;;;;;;19.58;72.29;100010.44;4880681;29;20060;-68
2023/07/23 11:21:05;;;;;;;5.88;3.35;;;;;;;19.66;73.38;100010.56;4880738;29;20395;-70
2023/07/23 11:24:09;;;;;;;4.72;2.97;;;;;;;19.68;73.09;100016.53;4880522;29;20105;-69
2023/07/23 11:27:12;;;;;;;4.88;2.60;;;;;;;19.72;75.46;100012.63;4880344;29;20052;-71
2023/07/23 11:30:16;;;;;;;4.95;3.00;;;;;;;19.73;76.33;100014.28;4868822;29;20105;-70
2023/07/23 11:33:21;;;;;;;4.22;2.17;;;;;;;19.76;74.38;100007.03;4880609;29;20087;-70
2023/07/23 11:36:25;;;;;;;4.38;2.42;;;;;;;19.75;77.15;100016.81;4880351;29;20083;-68
2023/07/23 11:39:34;;;;;;;5.13;1.92;;;;;;;19.74;76.32;100005.31;4880100;29;20075;-70
2023/07/23 11:42:37;;;;;;;6.57;2.60;;;;;;;19.73;76.05;100008.97;4880121;29;20481;-70
2023/07/23 11:45:46;;;;;;;4.13;2.20;;;;;;;19.79;76.96;100002.25;4880341;29;20083;-70
2023/07/23 11:48:56;;;;;;;7.07;2.30;;;;;;;19.85;80.22;100006.09;4880122;29;20052;-70
2023/07/23 11:52:00;;;;;;;4.25;2.70;;;;;;;19.83;80.76;100006.25;4880326;29;20116;-75
2023/07/23 11:55:04;;;;;;;4.05;2.50;;;;;;;19.85;81.08;100006.94;4879862;29;20167;-72
2023/07/23 11:58:09;;;;;;;5.55;2.60;;;;;;;19.92;82.40;100007.97;4880157;29;20147;-72
2023/07/23 12:01:12;;;;;;;3.97;2.40;;;;;;;19.96;82.38;100004.03;4880349;29;20056;-73
2023/07/23 12:04:16;;;;;;;4.78;2.38;;;;;;;19.96;79.94;100003.19;4879958;29;20087;-73
2023/07/23 12:07:20;;;;;;;2.88;1.85;;;;;;;20.01;78.67;100010.72;4879307;29;20132;-73
2023/07/23 12:10:27;;;;;;;3.88;2.42;;;;;;;20.00;78.80;100006.38;4868399;29;20052;-73
2023/07/23 12:13:30;;;;;;;5.72;2.13;;;;;;;20.04;79.30;100010.38;4879835;29;20124;-73
2023/07/23 12:16:38;;;;;;;4.38;2.38;;;;;;;20.01;79.31;100016.84;4879845;29;20043;-73
2023/07/23 12:19:43;;;;;;;3.80;2.35;;;;;;;20.02;79.42;100007.06;4879754;29;20139;-74
2023/07/23 12:22:52;;;;;;;4.97;2.20;;;;;;;20.10;78.65;100000.00;4847186;29;20056;-74
2023/07/23 12:25:55;;;;;;;4.53;2.50;;;;;;;20.08;81.80;99999.31;4879350;29;20057;-73
2023/07/23 12:28:59;;;;;;;4.72;2.65;;;;;;;20.04;83.96;99992.66;4879731;29;20055;-73
2023/07/23 12:32:12;;;;;;;4.93;2.33;;;;;;;19.96;83.78;100004.03;4879468;29;20124;-74
2023/07/23 12:35:16;;;;;;;3.83;2.40;;;;;;;19.79;83.76;100006.72;4879151;29;20048;-71
2023/07/23 12:38:20;;;;;;;6.05;2.28;;;;;;;19.73;83.05;100003.66;4879221;29;20770;-76
2023/07/23 12:41:23;;;;;;;4.10;2.88;;;;;;;19.80;83.81;100003.06;4879086;29;20108;-76
2023/07/23 12:44:27;;;;;;;8.65;2.17;;;;;;;19.77;84.20;100003.38;4879177;29;20048;-76
2023/07/23 12:47:30;;;;;;;4.38;2.20;;;;;;;19.80;84.67;100003.91;4878592;29;20113;-76
2023/07/23 12:50:33;;;;;;;4.93;2.33;;;;;;;19.82;84.65;99995.81;4879285;29;20055;-76
2023/07/23 12:53:37;;;;;;;4.03;2.30;;;;;;;19.66;85.89;99992.00;4875398;29;20104;-76
2023/07/23 12:56:41;;;;;;;4.13;2.17;;;;;;;19.76;85.45;99978.66;4868370;29;20060;-76
2023/07/23 12:59:44;;;;;;;3.25;2.15;;;;;;;19.79;85.32;99977.53;4867877;29;20131;-76
2023/07/23 13:07:21;;;;;;;5.00;2.67;;;;;;;20.05;84.27;99956.34;4865867;29;20102;-76
2023/07/23 13:10:25;;;;;;;4.32;2.63;;;;;;;20.24;82.38;99952.66;4867703;29;20040;-76
2023/07/23 13:13:38;;;;;;;5.03;2.17;;;;;;;20.42;81.25;99946.28;4866125;29;20170;-77
2023/07/23 13:16:42;;;;;;;3.90;2.15;;;;;;;20.64;78.57;99955.56;4857861;29;20059;-76
2023/07/23 13:19:45;;;;;;;4.38;2.20;;;;;;;20.82;75.69;99951.97;4869276;29;20044;-77
2023/07/23 13:22:50;;;;;;;3.70;1.40;;;;;;;21.21;62.42;99940.78;4867070;29;20104;-76
2023/07/23 13:25:53;;;;;;;3.90;1.10;;;;;;;21.68;57.45;99942.88;4865491;29;20064;-76
2023/07/23 13:28:57;;;;;;;6.35;1.20;;;;;;;22.22;55.93;99946.69;4859914;29;20053;-76
2023/07/23 13:32:00;;;;;;;5.18;1.17;;;;;;;22.63;53.32;99948.41;4859881;29;20157;-76
2023/07/23 13:35:04;;;;;;;2.70;1.65;;;;;;;22.60;51.23;99948.75;4859571;29;20080;-74
2023/07/23 13:38:09;;;;;;;4.72;1.35;;;;;;;22.62;50.42;99947.59;4859590;29;20066;-73
2023/07/23 13:41:13;;;;;;;2.30;1.00;;;;;;;22.53;49.59;99937.94;4860531;29;20127;-77
2023/07/23 13:44:16;;;;;;;2.53;1.00;;;;;;;22.55;49.71;99938.59;4848229;29;20047;-81
2023/07/23 13:47:20;;;;;;;4.55;1.15;;;;;;;22.51;50.59;99930.13;4859703;29;20049;-80
2023/07/23 13:50:42;;;;;;;3.13;1.27;;;;;;;22.55;50.30;99927.94;4859447;29;20172;-80
2023/07/23 13:54:01;;;;;;;4.53;0.93;;;;;;;22.73;48.91;99925.03;4859557;29;20575;-80
2023/07/23 13:57:05;;;;;;;2.10;1.05;;;;;;;22.72;49.24;99936.72;4859248;29;20169;-81
2023/07/23 14:00:08;;;;;;;2.63;1.13;;;;;;;22.80;48.21;99958.00;4859494;29;20412;-78
2023/07/23 14:03:18;;;;;;;4.55;1.25;;;;;;;22.79;48.86;99932.34;4859491;29;20456;-80
2023/07/23 14:06:22;;;;;;;5.57;1.20;;;;;;;22.83;48.42;99943.50;4847900;29;20129;-81
2023/07/23 14:09:31;;;;;;;3.40;1.05;;;;;;;22.80;48.56;99927.84;4859397;29;20048;-81
2023/07/23 14:12:36;;;;;;;2.40;1.00;;;;;;;22.78;49.02;99935.16;4847416;29;20054;-79
2023/07/23 14:15:39;;;;;;;2.38;1.00;;;;;;;22.74;49.20;99924.03;4856590;29;20109;-76
2023/07/23 14:18:42;;;;;;;2.20;0.90;;;;;;;22.70;49.13;99917.41;4858314;29;20079;-77
2023/07/23 14:21:48;;;;;;;4.63;1.33;;;;;;;22.72;49.31;99921.56;4859524;29;20047;-76
2023/07/23 14:24:52;;;;;;;5.38;1.55;;;;;;;22.84;48.33;99924.63;4857621;29;20101;-74
2023/07/23 14:27:56;;;;;;;3.50;1.10;;;;;;;22.79;48.65;99916.34;4857745;29;20477;-73
2023/07/23 14:30:59;;;;;;;5.55;1.30;;;;;;;22.83;48.73;99922.16;4858417;29;20075;-73
2023/07/23 14:34:02;;;;;;;3.50;1.35;;;;;;;22.74;49.85;99913.38;4858575;29;20117;-74
2023/07/23 14:37:06;;;;;;;3.35;1.30;;;;;;;22.77;48.80;99922.84;4858546;29;20568;-73
2023/07/23 14:40:10;;;;;;;5.22;1.42;;;;;;;22.81;48.35;99917.00;4859089;29;20053;-73
2023/07/23 14:43:12;;;;;;;3.60;1.35;;;;;;;22.86;48.43;99919.97;4868927;29;20051;-74
2023/07/23 14:46:16;;;;;;;4.30;1.00;;;;;;;22.81;48.27;99909.00;4858886;29;20052;-73
2023/07/23 14:49:19;;;;;;;2.20;0.90;;;;;;;22.77;48.48;99902.34;4858563;29;20600;-74
2023/07/23 14:52:23;;;;;;;4.07;0.90;;;;;;;22.79;48.15;99899.53;4858989;29;20052;-80
2023/07/23 14:55:26;;;;;;;2.35;1.10;;;;;;;22.79;48.58;99905.69;4858784;29;20572;-79
2023/07/23 14:58:30;;;;;;;3.45;1.40;;;;;;;22.69;48.94;99897.09;4859009;29;20052;-81
2023/07/23 15:01:33;;;;;;;4.75;1.20;;;;;;;22.65;49.15;99898.41;4859041;29;20049;-81
2023/07/23 15:04:36;;;;;;;7.25;1.08;;;;;;;22.84;47.33;99902.50;4858849;29;20049;-79
2023/07/23 15:07:40;;;;;;;2.78;0.88;;;;;;;22.77;47.92;99907.69;4858907;29;20573;-79
2023/07/23 15:10:43;;;;;;;2.47;1.00;;;;;;;22.71;48.16;99914.53;4860817;29;20075;-82
2023/07/23 15:13:47;;;;;;;2.28;0.90;;;;;;;22.71;47.94;99908.38;4858908;29;20575;-81
2023/07/23 15:16:52;;;;;;;4.93;0.80;;;;;;;22.69;48.97;99927.22;4858843;29;20048;-83
2023/07/23 15:19:58;;;;;;;2.22;0.93;;;;;;;22.68;48.56;99930.03;4858767;29;20133;-80
2023/07/23 15:23:02;;;;;;;2.42;1.00;;;;;;;22.71;48.35;99909.22;4847665;29;20223;-77
2023/07/23 15:26:12;;;;;;;3.38;0.90;;;;;;;22.63;49.09;99906.59;4859030;29;20060;-77
2023/07/23 15:29:19;;;;;;;4.35;1.05;;;;;;;22.65;49.11;99911.75;4847656;29;20048;-80
2023/07/23 15:32:40;;;;;;;4.20;0.95;;;;;;;22.61;49.43;99916.59;4858933;29;20424;-83
2023/07/23 15:35:54;;;;;;;5.45;0.70;;;;;;;22.61;49.40;99919.25;4858129;29;20056;-78
2023/07/23 15:38:59;;;;;;;2.30;1.02;;;;;;;22.68;49.15;99920.22;4858552;29;20076;-82
2023/07/23 15:42:04;;;;;;;2.25;0.80;;;;;;;22.66;49.28;99926.75;4862127;29;20098;-82
2023/07/23 15:45:08;;;;;;;2.67;1.02;;;;;;;22.58;49.82;99926.75;4862154;29;20048;-81
2023/07/23 15:48:11;;;;;;;2.47;0.93;;;;;;;22.58;49.48;99930.25;4862074;29;20068;-80
2023/07/23 15:51:15;;;;;;;4.28;0.95;;;;;;;22.56;49.46;99923.44;4862339;29;20056;-84
2023/07/23 15:54:23;;;;;;;3.20;0.95;;;;;;;22.48;49.86;99933.13;4861275;29;20137;-81
2023/07/23 15:57:27;;;;;;;3.60;0.85;;;;;;;22.44;49.68;99925.66;4862027;29;20068;-82
2023/07/23 16:00:47;;;;;;;3.45;0.98;;;;;;;22.40;49.92;99925.19;4862005;29;20596;-86
2023/07/23 16:03:51;;;;;;;2.25;1.10;;;;;;;22.33;50.27;99921.50;4850345;29;20064;-85
2023/07/23 16:07:25;;;;;;;2.70;1.17;;;;;;;22.39;50.48;99920.81;4861826;29;20057;-79
2023/07/23 16:10:29;;;;;;;3.72;0.95;;;;;;;22.40;50.48;99927.84;4850944;29;20049;-82
2023/07/23 16:13:34;;;;;;;3.55;0.90;;;;;;;22.40;50.43;99933.16;4862546;29;20060;-82
2023/07/23 16:16:41;;;;;;;1.92;0.90;;;;;;;22.36;50.94;99926.50;4862108;29;20060;-80
2023/07/23 16:19:45;;;;;;;3.95;1.00;;;;;;;22.28;51.47;99935.34;4861206;29;20097;-82
2023/07/23 16:22:48;;;;;;;2.45;1.05;;;;;;;22.21;51.59;99939.69;4818908;29;20109;-81
2023/07/23 16:25:51;;;;;;;3.28;1.00;;;;;;;22.19;52.20;99935.53;4850273;29;20128;-82
2023/07/23 16:28:55;;;;;;;3.95;0.95;;;;;;;22.01;55.13;99949.00;4861953;29;20211;-82
2023/07/23 16:31:59;;;;;;;3.88;0.90;;;;;;;21.90;56.60;99952.84;4844105;29;20064;-86
2023/07/23 16:36:01;;;;;;;2.80;1.10;;;;;;;21.61;59.94;99961.34;4843636;29;20057;-75
2023/07/23 16:39:13;;;;;;;3.05;1.05;;;;;;;21.55;61.15;99952.19;4832701;29;20036;-80
2023/07/23 16:42:23;;;;;;;3.85;1.00;;;;;;;21.39;64.27;99941.53;4843804;29;20057;-82
2023/07/23 16:45:27;;;;;;;2.90;1.15;;;;;;;21.34;65.67;99934.00;4843243;29;20418;-82
2023/07/23 16:48:31;;;;;;;2.00;1.10;;;;;;;21.36;67.19;99925.91;4843005;29;20465;-82
2023/07/23 16:51:34;;;;;;;2.20;1.02;;;;;;;21.30;66.17;99930.00;4842569;29;20106;-80
2023/07/23 16:54:37;;;;;;;3.65;1.17;;;;;;;21.24;70.56;99924.50;4842897;29;20080;-81
2023/07/23 16:57:44;;;;;;;2.58;1.20;;;;;;;21.18;71.71;99930.47;4843134;29;20049;-80
2023/07/23 17:00:48;;;;;;;3.88;1.10;;;;;;;20.86;75.21;99926.75;4831496;29;20198;-83
2023/07/23 17:03:51;;;;;;;2.40;1.17;;;;;;;20.69;70.53;99920.53;4842973;29;20049;-83
2023/07/23 17:06:56;;;;;;;4.55;1.25;;;;;;;20.76;74.37;99926.03;4844272;29;20202;-82
2023/07/23 17:10:01;;;;;;;2.67;1.35;;;;;;;20.86;72.57;99918.78;4840665;29;20057;-84
2023/07/23 17:13:05;;;;;;;2.75;1.02;;;;;;;20.88;71.31;99924.75;4843425;29;20044;-81
2023/07/23 17:16:09;;;;;;;3.25;1.50;;;;;;;20.93;69.45;99917.16;4851619;29;20122;-81
2023/07/23 17:19:13;;;;;;;5.00;1.60;;;;;;;20.95;68.16;99915.16;4857031;29;20561;-81
2023/07/23 17:22:18;;;;;;;2.72;1.42;;;;;;;20.98;65.95;99919.31;4867166;29;20043;-82
2023/07/23 17:25:26;;;;;;;2.45;1.10;;;;;;;20.97;70.52;99926.47;4871048;29;20048;-83
2023/07/23 17:28:31;;;;;;;3.35;1.30;;;;;;;20.92;64.72;99930.59;4869845;29;20097;-82
2023/07/23 17:31:35;;;;;;;3.25;1.27;;;;;;;20.95;63.62;99923.13;4868772;29;20358;-82
2023/07/23 17:34:42;;;;;;;2.95;1.38;;;;;;;20.96;64.34;99932.75;4858070;29;20102;-82
2023/07/23 17:37:49;;;;;;;3.05;0.90;;;;;;;20.93;62.01;99927.78;4866130;29;20109;-81
2023/07/23 17:40:54;;;;;;;4.13;1.40;;;;;;;20.94;61.76;99933.91;4868074;29;20185;-84
2023/07/23 17:43:57;;;;;;;2.47;1.20;;;;;;;20.99;61.08;99927.09;4869216;29;20408;-84
2023/07/23 17:47:04;;;;;;;4.82;0.90;;;;;;;21.00;61.29;99928.78;4870070;29;20148;-84
2023/07/23 17:50:22;;;;;;;2.53;1.23;;;;;;;20.94;62.57;99924.13;4858521;29;20044;-84
2023/07/23 17:53:38;;;;;;;3.03;0.80;;;;;;;20.98;62.61;99922.78;4875842;29;20041;-83
2023/07/23 17:56:52;;;;;;;3.30;1.33;;;;;;;20.97;62.97;99923.81;4868885;29;20064;-82
2023/07/23 17:59:56;;;;;;;2.65;0.88;;;;;;;20.97;62.74;99913.16;4870213;29;20045;-82
2023/07/23 18:03:02;;;;;;;2.80;1.20;;;;;;;20.98;64.38;99914.81;4859358;29;20060;-82
2023/07/23 18:06:06;;;;;;;2.83;1.08;;;;;;;20.96;63.65;99900.84;4858758;29;20579;-82
2023/07/23 18:09:11;;;;;;;2.30;1.00;;;;;;;20.97;63.60;99889.25;4867045;29;20517;-83
2023/07/23 18:12:15;;;;;;;10.00;1.25;;;;;;;20.96;63.40;99890.22;4869676;29;20136;-82
2023/07/23 18:15:22;;;;;;;1.88;0.60;;;;;;;20.90;63.21;99893.56;4856738;29;20132;-85